createdAt,value
2019-05-14T00:01:07.548Z,9.11
2019-05-14T00:06:11.947Z,9.11
2019-05-14T00:11:16.301Z,9.04
2019-05-14T00:16:23.813Z,9.18
2019-05-14T00:21:26.901Z,9.49
2019-05-14T00:26:31.841Z,9.01
2019-05-14T00:31:36.378Z,8.71
2019-05-14T00:36:41.639Z,9.12
2019-05-14T00:41:46.286Z,9.28
2019-05-14T00:46:51.614Z,8.97
2019-05-14T00:51:56.182Z,8.99
2019-05-14T00:57:01.440Z,8.73
2019-05-14T01:02:06.005Z,8.90
2019-05-14T01:07:11.842Z,9.20
2019-05-14T01:12:18.668Z,9.38
2019-05-14T01:17:22.967Z,9.46
2019-05-14T01:22:27.352Z,8.98
2019-05-14T01:27:31.871Z,9.04
2019-05-14T01:32:36.278Z,8.86
2019-05-14T01:37:41.661Z,8.75
2019-05-14T01:42:47.210Z,8.88
2019-05-14T01:47:52.133Z,8.74
2019-05-14T01:52:56.509Z,8.66
2019-05-14T01:58:02.309Z,8.72
2019-05-14T02:03:07.958Z,8.41
2019-05-14T02:08:13.368Z,8.63
2019-05-14T02:13:17.723Z,8.48
2019-05-14T02:18:22.069Z,8.04
2019-05-14T02:23:26.435Z,8.12
2019-05-14T02:28:31.463Z,8.26
2019-05-14T02:33:39.450Z,8.28
2019-05-14T02:38:42.136Z,7.88
2019-05-14T02:43:49.919Z,7.94
2019-05-14T02:48:52.604Z,7.96
2019-05-14T02:53:59.181Z,8.00
2019-05-14T02:59:05.785Z,7.91
2019-05-14T03:04:09.780Z,7.62
2019-05-14T03:09:14.283Z,7.82
2019-05-14T03:14:19.509Z,7.77
2019-05-14T03:19:24.184Z,7.46
2019-05-14T03:24:29.803Z,7.69
2019-05-14T03:29:34.196Z,7.71
2019-05-14T03:34:42.880Z,7.47
2019-05-14T03:39:44.621Z,7.42
2019-05-14T03:44:49.232Z,7.69
2019-05-14T03:49:53.892Z,7.76
2019-05-14T03:55:01.300Z,7.75
2019-05-14T04:00:06.048Z,8.27
2019-05-14T04:05:12.126Z,7.96
2019-05-14T04:10:19.513Z,8.48
2019-05-14T04:15:24.327Z,8.32
2019-05-14T04:20:30.254Z,8.11
2019-05-14T04:25:39.040Z,8.53
2019-05-14T04:30:44.095Z,9.05
2019-05-14T04:35:49.187Z,8.89
2019-05-14T04:40:53.661Z,9.28
2019-05-14T04:45:59.217Z,9.16
2019-05-14T04:51:04.066Z,9.48
2019-05-14T04:56:09.820Z,9.32
2019-05-14T05:01:14.485Z,9.81
2019-05-14T05:06:19.236Z,9.72
2019-05-14T05:11:23.815Z,9.25
2019-05-14T05:16:29.558Z,9.35
2019-05-14T05:21:34.332Z,9.94
2019-05-14T05:26:39.362Z,9.70
2019-05-14T05:31:43.835Z,9.94
2019-05-14T05:36:48.684Z,10.17
2019-05-14T05:41:53.087Z,9.96
2019-05-14T05:46:59.639Z,10.32
2019-05-14T05:52:03.543Z,10.32
2019-05-14T05:57:09.305Z,10.41
2019-05-14T06:02:14.606Z,10.50
2019-05-14T06:07:18.969Z,10.71
2019-05-14T06:12:23.368Z,10.45
2019-05-14T06:17:28.524Z,10.71
2019-05-14T06:22:33.065Z,10.63
2019-05-14T06:27:38.002Z,11.61
2019-05-14T06:32:42.577Z,11.45
2019-05-14T06:37:49.035Z,11.46
2019-05-14T06:42:53.073Z,10.65
2019-05-14T06:47:59.316Z,10.88
2019-05-14T06:53:03.768Z,11.21
2019-05-14T06:58:09.201Z,11.81
2019-05-14T07:03:13.711Z,11.37
2019-05-14T07:08:18.799Z,11.25
2019-05-14T07:13:23.411Z,12.17
2019-05-14T07:18:30.236Z,12.56
2019-05-14T07:23:38.187Z,12.87
2019-05-14T07:28:42.650Z,12.20
2019-05-14T07:33:49.333Z,11.75
2019-05-14T07:38:56.396Z,11.88
2019-05-14T07:43:59.181Z,11.35
2019-05-14T07:49:08.451Z,11.56
2019-05-14T07:54:09.583Z,11.62
2019-05-14T07:59:13.961Z,11.70
2019-05-14T08:04:20.007Z,11.05
2019-05-14T08:09:24.536Z,11.55
2019-05-14T08:14:33.608Z,11.72
2019-05-14T08:19:34.995Z,10.98
2019-05-14T08:24:39.493Z,11.21
2019-05-14T08:29:43.866Z,10.98
2019-05-14T08:34:48.310Z,10.50
2019-05-14T08:39:52.765Z,10.73
2019-05-14T08:44:59.179Z,10.86
2019-05-14T08:50:03.277Z,11.04
2019-05-14T08:55:11.103Z,10.83
2019-05-14T09:00:14.309Z,10.80
2019-05-14T09:05:18.715Z,10.86
2019-05-14T09:10:24.145Z,11.09
2019-05-14T09:15:28.895Z,11.13
2019-05-14T09:20:33.366Z,11.20
2019-05-14T09:25:46.431Z,11.54
2019-05-14T09:30:43.949Z,11.47
2019-05-14T09:35:49.355Z,11.68
2019-05-14T09:41:06.947Z,11.78
2019-05-14T09:46:00.001Z,12.08
2019-05-14T09:51:04.368Z,11.27
2019-05-14T09:56:09.255Z,11.41
2019-05-14T10:01:13.683Z,11.48
2019-05-14T10:06:20.663Z,11.35
2019-05-14T10:11:24.279Z,11.76
2019-05-14T10:16:29.208Z,11.16
2019-05-14T10:21:33.707Z,11.63
2019-05-14T10:26:39.451Z,12.11
2019-05-14T10:31:44.055Z,11.88
2019-05-14T10:36:48.439Z,11.35
2019-05-14T10:41:52.791Z,11.19
2019-05-14T10:46:58.267Z,11.53
2019-05-14T10:52:02.825Z,11.41
2019-05-14T10:57:09.559Z,10.88
2019-05-14T11:02:13.261Z,11.01
2019-05-14T11:07:18.624Z,11.33
2019-05-14T11:12:23.167Z,11.89
2019-05-14T11:17:29.088Z,11.48
2019-05-14T11:22:33.786Z,11.77
2019-05-14T11:27:38.903Z,10.85
2019-05-14T11:32:43.492Z,10.68
2019-05-14T11:37:48.349Z,10.29
2019-05-14T11:42:52.948Z,10.04
2019-05-14T11:47:58.448Z,10.04
2019-05-14T11:53:03.231Z,11.14
2019-05-14T11:58:08.752Z,11.62
2019-05-14T12:03:14.100Z,11.33
2019-05-14T12:08:18.896Z,11.59
2019-05-14T12:13:23.466Z,11.13
2019-05-14T12:18:29.190Z,10.97
2019-05-14T12:23:33.829Z,8.32
2019-05-14T12:28:38.753Z,8.17
2019-05-14T12:33:43.326Z,9.27
2019-05-14T12:38:47.709Z,9.28
2019-05-14T12:43:52.226Z,9.84
2019-05-14T12:48:58.949Z,10.02
2019-05-14T12:54:02.818Z,10.12
2019-05-14T12:59:07.261Z,10.17
2019-05-14T13:04:11.626Z,10.29
2019-05-14T13:09:20.833Z,10.13
2019-05-14T13:14:22.075Z,10.43
2019-05-14T13:19:28.494Z,10.33
2019-05-14T13:24:32.615Z,10.13
2019-05-14T13:29:36.975Z,10.04
2019-05-14T13:34:41.372Z,10.44
2019-05-14T13:39:50.008Z,10.40
2019-05-14T13:44:51.887Z,11.15
2019-05-14T13:49:59.060Z,11.27
2019-05-14T13:55:02.299Z,11.27
2019-05-14T14:00:11.871Z,11.40
2019-05-14T14:05:15.120Z,10.99
2019-05-14T14:10:19.512Z,11.02
2019-05-14T14:15:24.830Z,10.87
2019-05-14T14:20:29.276Z,10.96
2019-05-14T14:25:33.806Z,11.11
2019-05-14T14:30:39.626Z,11.26
2019-05-14T14:35:44.194Z,11.37
2019-05-14T14:40:48.794Z,11.37
2019-05-14T14:45:53.129Z,11.74
2019-05-14T14:50:58.613Z,11.73
2019-05-14T14:56:03.236Z,11.70
2019-05-14T15:01:08.899Z,11.93
2019-05-14T15:06:14.573Z,12.02
2019-05-14T15:11:19.083Z,12.09
2019-05-14T15:16:24.212Z,12.45
2019-05-14T15:21:29.909Z,12.50
2019-05-14T15:26:35.495Z,12.32
2019-05-14T15:31:40.022Z,12.31
2019-05-14T15:36:44.340Z,12.25
2019-05-14T15:41:49.858Z,12.15
2019-05-14T15:46:54.448Z,12.30
2019-05-14T15:51:58.828Z,12.34
2019-05-14T15:57:03.191Z,12.08
2019-05-14T16:02:09.427Z,12.06
2019-05-14T16:07:13.671Z,12.46
2019-05-14T16:12:19.686Z,12.37
2019-05-14T16:17:30.368Z,12.23
2019-05-14T16:22:35.000Z,12.34
2019-05-14T16:27:39.958Z,12.44
2019-05-14T16:32:44.533Z,12.28
2019-05-14T16:37:48.910Z,12.50
2019-05-14T16:42:53.279Z,12.39
2019-05-14T16:47:59.315Z,12.35
2019-05-14T16:53:03.791Z,12.20
2019-05-14T16:58:08.953Z,12.18
2019-05-14T17:03:13.400Z,12.28
2019-05-14T17:08:19.001Z,12.48
2019-05-14T17:13:23.582Z,12.31
2019-05-14T17:18:28.710Z,12.21
2019-05-14T17:23:33.278Z,12.11
2019-05-14T17:28:40.339Z,12.18
2019-05-14T17:33:43.738Z,12.03
2019-05-14T17:38:49.148Z,11.95
2019-05-14T17:43:53.883Z,11.93
2019-05-14T17:48:59.188Z,11.91
2019-05-14T17:54:03.671Z,11.84
2019-05-14T17:59:08.722Z,11.81
2019-05-14T18:04:13.304Z,11.70
2019-05-14T18:09:19.794Z,11.67
2019-05-14T18:14:23.815Z,11.55
2019-05-14T18:19:29.022Z,11.51
2019-05-14T18:24:34.567Z,11.39
2019-05-14T18:29:39.227Z,11.28
2019-05-14T18:34:43.651Z,11.18
2019-05-14T18:39:48.530Z,11.15
2019-05-14T18:44:52.959Z,11.10
2019-05-14T18:49:59.507Z,10.92
2019-05-14T18:55:08.470Z,10.78
2019-05-14T19:00:34.001Z,10.73
2019-05-14T19:05:38.447Z,10.63
2019-05-14T19:10:42.885Z,10.52
2019-05-14T19:15:48.349Z,10.44
2019-05-14T19:20:52.807Z,10.33
2019-05-14T19:25:59.171Z,10.31
2019-05-14T19:31:03.231Z,10.21
2019-05-14T19:36:08.833Z,10.12
2019-05-14T19:41:13.408Z,10.00
2019-05-14T19:46:17.742Z,9.97
2019-05-14T19:51:22.082Z,9.87
2019-05-14T19:56:29.116Z,9.77
2019-05-14T20:01:32.538Z,9.73
2019-05-14T20:06:38.857Z,9.67
2019-05-14T20:11:42.975Z,9.45
2019-05-14T20:16:49.080Z,9.47
2019-05-14T20:21:54.716Z,9.38
2019-05-14T20:27:08.229Z,9.29
2019-05-14T20:32:05.188Z,9.25
2019-05-14T20:37:09.576Z,9.22
2019-05-14T20:42:14.013Z,9.22
2019-05-14T20:47:18.991Z,9.21
2019-05-14T20:52:23.534Z,9.06
2019-05-14T20:57:33.214Z,8.92
2019-05-14T21:02:33.981Z,9.00
2019-05-14T21:07:38.676Z,8.89
2019-05-14T21:12:43.250Z,8.85
2019-05-14T21:17:50.249Z,8.69
2019-05-14T21:22:53.894Z,8.64
2019-05-14T21:27:58.941Z,8.56
2019-05-14T21:33:04.529Z,8.37
2019-05-14T21:38:09.855Z,8.33
2019-05-14T21:43:14.221Z,8.34
2019-05-14T21:48:19.903Z,8.29
2019-05-14T21:53:24.467Z,8.22
2019-05-14T21:58:29.215Z,8.12
2019-05-14T22:03:33.627Z,8.01
2019-05-14T22:08:39.244Z,7.93
2019-05-14T22:13:43.964Z,7.81
2019-05-14T22:18:48.490Z,7.85
2019-05-14T22:23:52.968Z,7.79
2019-05-14T22:28:58.682Z,7.93
2019-05-14T22:34:03.192Z,7.93
2019-05-14T22:39:07.547Z,7.77
2019-05-14T22:44:11.891Z,7.83
2019-05-14T22:49:18.623Z,8.01
2019-05-14T22:54:22.335Z,7.75
2019-05-14T22:59:28.337Z,7.81
2019-05-14T23:04:32.858Z,7.81
2019-05-14T23:09:38.804Z,7.93
2019-05-14T23:14:43.242Z,7.96
2019-05-14T23:19:48.359Z,7.89
2019-05-14T23:24:52.829Z,8.11
2019-05-14T23:29:58.699Z,8.06
2019-05-14T23:35:03.372Z,8.09
2019-05-14T23:40:08.562Z,8.23
2019-05-14T23:45:13.168Z,8.26
2019-05-14T23:50:17.579Z,8.04
2019-05-14T23:55:21.948Z,8.18
